createdAt,value
2017-09-14T00:02:09.314Z,13.50
2017-09-14T00:04:37.815Z,13.50
2017-09-14T00:07:06.281Z,13.50
2017-09-14T00:09:34.967Z,13.70
2017-09-14T00:12:03.503Z,13.80
2017-09-14T00:14:33.085Z,14.10
2017-09-14T00:17:01.640Z,14.20
2017-09-14T00:19:30.223Z,14.30
2017-09-14T00:21:58.796Z,14.30
2017-09-14T00:24:27.339Z,14.30
2017-09-14T00:26:55.883Z,14.30
2017-09-14T00:29:24.426Z,14.20
2017-09-14T00:31:53.133Z,13.90
2017-09-14T00:34:21.702Z,13.80
2017-09-14T00:36:50.218Z,13.50
2017-09-14T00:39:19.010Z,13.50
2017-09-14T00:41:47.933Z,13.30
2017-09-14T00:44:17.263Z,13.30
2017-09-14T00:46:45.754Z,13.30
2017-09-14T00:49:14.330Z,13.60
2017-09-14T00:51:42.145Z,13.70
2017-09-14T00:54:09.984Z,13.90
2017-09-14T00:56:38.161Z,14.10
2017-09-14T00:59:06.699Z,13.90
2017-09-14T01:01:35.211Z,13.80
2017-09-14T01:04:03.374Z,13.80
2017-09-14T01:06:31.923Z,13.90
2017-09-14T01:09:00.831Z,13.50
2017-09-14T01:11:29.310Z,13.50
2017-09-14T01:13:57.892Z,13.30
2017-09-14T01:16:26.396Z,13.20
2017-09-14T01:18:54.930Z,13.10
2017-09-14T01:21:22.817Z,13.10
2017-09-14T01:23:51.149Z,13.00
2017-09-14T01:26:19.746Z,12.80
2017-09-14T01:28:48.307Z,12.70
2017-09-14T01:31:16.967Z,12.60
2017-09-14T01:33:45.526Z,12.60
2017-09-14T01:36:13.755Z,12.60
2017-09-14T01:38:42.336Z,12.60
2017-09-14T01:41:10.569Z,12.50
2017-09-14T01:43:39.890Z,12.30
2017-09-14T01:46:08.392Z,12.30
2017-09-14T01:48:36.927Z,12.20
2017-09-14T01:51:05.519Z,12.20
2017-09-14T01:53:33.995Z,12.10
2017-09-14T01:56:02.515Z,11.90
2017-09-14T01:58:31.082Z,11.90
2017-09-14T02:00:59.628Z,11.80
2017-09-14T02:03:28.190Z,11.80
2017-09-14T02:05:56.581Z,11.60
2017-09-14T02:08:25.107Z,11.50
2017-09-14T02:10:54.171Z,11.50
2017-09-14T02:13:22.666Z,11.40
2017-09-14T02:15:51.181Z,11.30
2017-09-14T02:18:19.786Z,11.40
2017-09-14T02:20:48.350Z,11.50
2017-09-14T02:23:17.021Z,11.90
2017-09-14T02:25:45.534Z,12.20
2017-09-14T02:28:14.045Z,12.20
2017-09-14T02:30:42.567Z,12.10
2017-09-14T02:33:11.915Z,12.30
2017-09-14T02:35:40.455Z,12.30
2017-09-14T02:38:08.996Z,12.00
2017-09-14T02:40:37.200Z,11.80
2017-09-14T02:43:05.886Z,11.60
2017-09-14T02:45:34.426Z,11.30
2017-09-14T02:48:03.086Z,11.20
2017-09-14T02:50:31.865Z,11.10
2017-09-14T02:53:01.170Z,11.50
2017-09-14T02:55:29.714Z,11.50
2017-09-14T02:57:58.292Z,11.50
2017-09-14T03:00:26.833Z,11.30
2017-09-14T03:02:55.406Z,11.10
2017-09-14T03:05:23.946Z,11.00
2017-09-14T03:07:52.319Z,11.00
2017-09-14T03:10:20.904Z,10.90
2017-09-14T03:12:49.386Z,10.80
2017-09-14T03:15:17.954Z,10.70
2017-09-14T03:17:46.484Z,10.80
2017-09-14T03:20:15.022Z,11.00
2017-09-14T03:22:43.565Z,11.00
2017-09-14T03:25:12.851Z,11.10
2017-09-14T03:27:41.327Z,11.10
2017-09-14T03:30:09.856Z,11.10
2017-09-14T03:32:38.389Z,11.00
2017-09-14T03:35:06.983Z,10.90
2017-09-14T03:37:35.490Z,10.90
2017-09-14T03:40:04.776Z,10.90
2017-09-14T03:42:34.142Z,10.80
2017-09-14T03:45:02.644Z,10.80
2017-09-14T03:47:31.183Z,10.70
2017-09-14T03:49:59.742Z,10.50
2017-09-14T03:52:28.310Z,10.60
2017-09-14T03:54:56.839Z,10.70
2017-09-14T03:57:25.170Z,10.70
2017-09-14T03:59:53.726Z,10.70
2017-09-14T04:02:23.098Z,10.90
2017-09-14T04:04:51.642Z,10.80
2017-09-14T04:07:20.972Z,11.00
2017-09-14T04:09:49.484Z,11.00
2017-09-14T04:12:19.105Z,10.90
2017-09-14T04:14:48.058Z,10.90
2017-09-14T04:17:16.402Z,11.00
2017-09-14T04:19:44.975Z,11.00
2017-09-14T04:22:13.550Z,10.90
2017-09-14T04:24:42.039Z,11.00
2017-09-14T04:27:10.840Z,11.00
2017-09-14T04:29:39.400Z,11.10
2017-09-14T04:32:07.885Z,11.10
2017-09-14T04:34:36.467Z,11.20
2017-09-14T04:37:05.085Z,11.20
2017-09-14T04:39:33.608Z,11.10
2017-09-14T04:42:02.142Z,11.00
2017-09-14T04:44:30.740Z,10.90
2017-09-14T04:47:00.035Z,11.00
2017-09-14T04:49:29.367Z,11.00
2017-09-14T04:51:57.959Z,11.00
2017-09-14T04:54:26.298Z,11.20
2017-09-14T04:56:54.634Z,11.20
2017-09-14T04:59:23.637Z,11.10
2017-09-14T05:01:52.254Z,11.00
2017-09-14T05:06:57.962Z,10.50
2017-09-14T05:09:27.498Z,10.50
2017-09-14T05:11:57.110Z,10.30
2017-09-14T05:14:25.660Z,10.20
2017-09-14T05:16:56.333Z,10.20
2017-09-14T05:19:45.212Z,10.00
2017-09-14T05:24:48.400Z,10.30
2017-09-14T05:27:16.868Z,10.50
2017-09-14T05:29:45.372Z,10.60
2017-09-14T05:32:14.061Z,10.70
2017-09-14T05:34:42.558Z,10.80
2017-09-14T05:37:11.070Z,10.90
2017-09-14T05:39:39.573Z,11.00
2017-09-14T05:42:08.126Z,11.10
2017-09-14T05:44:37.254Z,11.30
2017-09-14T05:47:05.855Z,11.30
2017-09-14T05:49:35.103Z,11.80
2017-09-14T05:52:03.647Z,11.80
2017-09-14T05:54:32.221Z,11.90
2017-09-14T05:57:00.788Z,12.20
2017-09-14T05:59:29.296Z,12.50
2017-09-14T06:01:57.863Z,13.00
2017-09-14T06:04:26.339Z,13.50
2017-09-14T06:06:54.856Z,13.90
2017-09-14T06:09:23.622Z,14.40
2017-09-14T06:11:51.998Z,15.10
2017-09-14T06:14:21.090Z,16.30
2017-09-14T06:16:49.620Z,16.30
2017-09-14T06:19:18.116Z,16.80
2017-09-14T06:21:46.676Z,17.00
2017-09-14T06:24:15.065Z,16.90
2017-09-14T06:26:43.574Z,16.90
2017-09-14T06:29:12.834Z,17.20
2017-09-14T06:31:41.307Z,17.20
2017-09-14T06:34:09.826Z,17.40
2017-09-14T06:36:39.524Z,17.20
2017-09-14T06:39:08.059Z,17.60
2017-09-14T06:41:36.580Z,17.50
2017-09-14T06:44:04.975Z,17.80
2017-09-14T06:46:33.483Z,17.70
2017-09-14T06:49:02.047Z,18.10
2017-09-14T06:51:30.663Z,18.60
2017-09-14T06:53:59.197Z,19.00
2017-09-14T06:56:27.955Z,19.90
2017-09-14T06:58:56.285Z,20.60
2017-09-14T07:01:27.866Z,21.20
2017-09-14T07:03:56.414Z,21.80
2017-09-14T07:08:58.415Z,23.30
2017-09-14T07:11:26.960Z,23.30
2017-09-14T07:13:59.803Z,23.60
2017-09-14T07:16:28.378Z,24.70
2017-09-14T07:18:57.408Z,25.30
2017-09-14T07:21:25.916Z,25.50
2017-09-14T07:23:54.756Z,26.70
2017-09-14T07:26:23.282Z,27.90
2017-09-14T07:31:39.373Z,28.60
2017-09-14T07:34:07.976Z,29.00
2017-09-14T07:36:39.264Z,29.50
2017-09-14T07:39:07.834Z,29.90
2017-09-14T07:41:45.471Z,30.40
2017-09-14T07:44:14.090Z,30.40
2017-09-14T07:52:05.171Z,29.60
2017-09-14T07:54:34.054Z,29.30
2017-09-14T07:57:02.564Z,29.80
2017-09-14T07:59:32.456Z,30.50
2017-09-14T08:04:47.426Z,31.90
2017-09-14T08:16:35.710Z,32.30
2017-09-14T08:19:13.455Z,32.30
2017-09-14T08:28:32.159Z,33.10
2017-09-14T08:31:03.709Z,34.10
2017-09-14T08:37:27.842Z,33.70
2017-09-14T08:39:58.652Z,32.50
2017-09-14T08:45:05.900Z,31.60
2017-09-14T08:47:34.429Z,31.30
2017-09-14T08:50:08.302Z,31.40
2017-09-14T08:52:41.222Z,32.20
2017-09-14T08:55:11.251Z,33.20
2017-09-14T09:02:09.702Z,34.10
2017-09-14T09:04:53.787Z,34.30
2017-09-14T09:10:02.863Z,34.20
2017-09-14T09:15:27.625Z,33.30
2017-09-14T09:18:09.749Z,31.90
2017-09-14T09:20:48.456Z,31.90
2017-09-14T09:23:18.786Z,31.30
2017-09-14T09:25:50.057Z,31.20
2017-09-14T09:28:20.883Z,30.90
2017-09-14T09:31:06.382Z,31.70
2017-09-14T09:37:22.380Z,33.30
2017-09-14T09:39:50.947Z,34.00
2017-09-14T09:47:43.213Z,35.30
2017-09-14T09:53:12.914Z,33.80
2017-09-14T09:55:43.058Z,33.90
2017-09-14T09:58:21.255Z,33.90
2017-09-14T10:01:32.352Z,34.30
2017-09-14T10:04:00.884Z,34.20
2017-09-14T10:09:11.983Z,32.60
2017-09-14T10:11:45.517Z,33.90
2017-09-14T10:14:14.839Z,31.80
2017-09-14T10:16:43.898Z,31.80
2017-09-14T10:19:18.357Z,31.60
2017-09-14T10:21:47.952Z,31.30
2017-09-14T10:26:53.362Z,31.90
2017-09-14T10:29:21.762Z,31.40
2017-09-14T10:31:53.855Z,31.40
2017-09-14T10:34:23.650Z,31.40
2017-09-14T10:36:57.435Z,31.10
2017-09-14T10:39:25.982Z,31.10
2017-09-14T10:41:56.295Z,30.50
2017-09-14T10:44:26.724Z,30.70
2017-09-14T10:46:56.981Z,30.60
2017-09-14T10:49:28.112Z,30.80
2017-09-14T10:51:58.578Z,30.70
2017-09-14T10:54:27.081Z,30.70
2017-09-14T10:56:57.286Z,31.00
2017-09-14T10:59:26.020Z,31.90
2017-09-14T11:01:57.199Z,31.40
2017-09-14T11:04:26.497Z,31.00
2017-09-14T11:06:56.232Z,30.50
2017-09-14T11:09:25.271Z,29.00
2017-09-14T11:11:53.830Z,28.30
2017-09-14T11:14:25.290Z,30.80
2017-09-14T11:16:54.720Z,30.90
2017-09-14T11:19:23.795Z,31.00
2017-09-14T11:21:52.567Z,31.10
2017-09-14T11:24:21.061Z,31.20
2017-09-14T11:26:50.658Z,31.40
2017-09-14T11:29:20.126Z,30.80
2017-09-14T11:31:50.489Z,30.20
2017-09-14T11:34:23.753Z,29.20
2017-09-14T11:39:27.730Z,29.10
2017-09-14T11:41:56.220Z,29.80
2017-09-14T11:44:24.696Z,29.30
2017-09-14T11:46:53.967Z,31.70
2017-09-14T11:49:22.387Z,31.60
2017-09-14T11:51:50.901Z,31.00
2017-09-14T11:54:19.795Z,30.70
2017-09-14T11:56:48.263Z,30.00
2017-09-14T11:59:18.395Z,30.40
2017-09-14T12:01:47.906Z,30.60
2017-09-14T12:04:16.396Z,30.40
2017-09-14T12:06:45.658Z,30.60
2017-09-14T12:09:14.989Z,29.90
2017-09-14T12:11:43.470Z,29.90
2017-09-14T12:14:11.927Z,29.40
2017-09-14T12:16:40.472Z,29.60
2017-09-14T12:19:08.996Z,29.50
2017-09-14T12:21:37.515Z,28.80
2017-09-14T12:24:06.054Z,28.50
2017-09-14T12:26:34.510Z,28.20
2017-09-14T12:29:02.942Z,27.90
2017-09-14T12:31:31.404Z,28.00
2017-09-14T12:33:59.911Z,28.40
2017-09-14T12:36:28.358Z,28.60
2017-09-14T12:38:57.562Z,28.70
2017-09-14T12:41:26.040Z,28.70
2017-09-14T12:43:54.494Z,29.00
2017-09-14T12:46:23.156Z,29.00
2017-09-14T12:48:52.615Z,28.30
2017-09-14T12:51:21.063Z,28.30
2017-09-14T12:53:49.526Z,27.80
2017-09-14T12:56:17.962Z,28.20
2017-09-14T12:58:46.423Z,28.40
2017-09-14T13:01:15.733Z,28.00
2017-09-14T13:03:44.183Z,27.90
2017-09-14T13:06:12.624Z,27.60
2017-09-14T13:08:41.081Z,27.70
2017-09-14T13:11:10.091Z,26.90
2017-09-14T13:13:38.418Z,26.90
2017-09-14T13:16:06.722Z,26.70
2017-09-14T13:18:35.219Z,27.00
2017-09-14T13:21:04.526Z,26.90
2017-09-14T13:23:32.970Z,26.90
2017-09-14T13:26:01.434Z,27.30
2017-09-14T13:28:29.875Z,26.70
2017-09-14T13:30:58.300Z,26.30
2017-09-14T13:33:26.765Z,26.80
2017-09-14T13:35:55.215Z,26.50
2017-09-14T13:38:23.626Z,27.10
2017-09-14T13:40:52.088Z,27.30
2017-09-14T13:43:20.529Z,27.50
2017-09-14T13:45:49.225Z,27.30
2017-09-14T13:48:18.490Z,26.80
2017-09-14T13:50:46.950Z,26.80
2017-09-14T13:53:15.432Z,26.30
2017-09-14T13:55:43.839Z,25.70
2017-09-14T13:58:12.259Z,24.70
2017-09-14T14:00:40.742Z,24.00
2017-09-14T14:03:09.918Z,23.10
2017-09-14T14:05:38.325Z,23.00
2017-09-14T14:08:06.754Z,22.80
2017-09-14T14:10:35.160Z,22.60
2017-09-14T14:13:03.593Z,22.50
2017-09-14T14:15:32.069Z,22.20
2017-09-14T14:18:00.480Z,22.20
2017-09-14T14:20:28.925Z,22.10
2017-09-14T14:22:57.461Z,22.00
2017-09-14T14:25:26.263Z,21.90
2017-09-14T14:27:54.665Z,21.80
2017-09-14T14:30:23.085Z,21.90
2017-09-14T14:32:51.313Z,21.80
2017-09-14T14:35:20.493Z,21.90
2017-09-14T14:37:49.032Z,21.90
2017-09-14T14:40:17.430Z,21.80
2017-09-14T14:42:45.829Z,21.70
2017-09-14T14:45:14.282Z,21.60
2017-09-14T14:47:42.694Z,21.60
2017-09-14T14:50:11.125Z,21.60
2017-09-14T14:52:39.577Z,21.60
2017-09-14T14:55:08.011Z,21.70
2017-09-14T14:57:36.238Z,21.60
2017-09-14T15:00:05.267Z,21.50
2017-09-14T15:02:33.717Z,21.50
2017-09-14T15:05:01.974Z,21.70
2017-09-14T15:07:30.498Z,21.80
2017-09-14T15:09:59.075Z,22.00
2017-09-14T15:12:27.494Z,22.40
2017-09-14T15:14:55.942Z,22.70
2017-09-14T15:17:24.405Z,23.00
2017-09-14T15:19:53.639Z,23.10
2017-09-14T15:22:22.039Z,23.00
2017-09-14T15:24:50.465Z,23.20
2017-09-14T15:27:19.681Z,23.10
2017-09-14T15:29:48.091Z,23.10
2017-09-14T15:32:16.530Z,23.10
2017-09-14T15:34:45.001Z,23.00
2017-09-14T15:37:19.717Z,22.70
2017-09-14T15:39:53.658Z,22.70
2017-09-14T15:42:27.638Z,22.70
2017-09-14T15:45:02.216Z,22.70
2017-09-14T15:47:30.712Z,22.70
2017-09-14T15:50:04.897Z,22.60
2017-09-14T15:52:33.488Z,22.50
2017-09-14T15:55:12.010Z,22.40
2017-09-14T15:57:40.521Z,22.30
2017-09-14T16:00:09.114Z,22.10
2017-09-14T16:02:37.547Z,21.80
2017-09-14T16:05:05.994Z,21.60
2017-09-14T16:07:36.904Z,21.20
2017-09-14T16:10:06.473Z,20.60
2017-09-14T16:12:36.634Z,20.10
2017-09-14T16:15:05.040Z,19.70
2017-09-14T16:17:33.280Z,19.30
2017-09-14T16:20:01.802Z,18.90
2017-09-14T16:22:30.207Z,18.70
2017-09-14T16:24:59.406Z,18.40
2017-09-14T16:27:29.922Z,18.30
2017-09-14T16:29:58.349Z,18.20
2017-09-14T16:32:27.637Z,18.00
2017-09-14T16:34:58.006Z,17.90
2017-09-14T16:37:26.665Z,17.70
2017-09-14T16:39:55.299Z,17.50
2017-09-14T16:42:24.575Z,17.30
2017-09-14T16:44:53.932Z,17.20
2017-09-14T16:47:23.297Z,17.10
2017-09-14T16:49:55.535Z,17.00
2017-09-14T16:52:27.287Z,16.70
2017-09-14T16:54:56.388Z,16.70
2017-09-14T17:02:47.125Z,16.50
2017-09-14T17:05:16.894Z,16.30
2017-09-14T17:07:53.211Z,16.20
2017-09-14T17:10:30.700Z,16.10
2017-09-14T17:13:07.954Z,16.00
2017-09-14T17:15:38.398Z,15.90
2017-09-14T17:18:16.728Z,15.80
2017-09-14T17:20:46.232Z,15.60
2017-09-14T17:23:22.793Z,15.50
2017-09-14T17:25:55.559Z,15.10
2017-09-14T17:28:31.952Z,14.90
2017-09-14T17:31:02.922Z,14.90
2017-09-14T17:33:32.740Z,14.80
2017-09-14T17:36:02.313Z,14.60
2017-09-14T17:38:30.871Z,14.50
2017-09-14T17:41:01.624Z,14.30
2017-09-14T17:43:30.056Z,14.20
2017-09-14T17:45:58.739Z,14.00
2017-09-14T17:48:28.249Z,13.80
2017-09-14T17:50:56.750Z,13.80
2017-09-14T17:53:25.946Z,13.30
2017-09-14T17:55:55.169Z,13.10
2017-09-14T17:58:23.602Z,13.10
2017-09-14T18:00:51.661Z,12.80
2017-09-14T18:03:20.078Z,12.50
2017-09-14T18:05:48.514Z,12.40
2017-09-14T18:08:16.929Z,12.20
2017-09-14T18:10:45.347Z,12.10
2017-09-14T18:13:13.802Z,12.00
2017-09-14T18:15:43.017Z,11.70
2017-09-14T18:18:12.018Z,11.60
2017-09-14T18:20:40.701Z,11.60
2017-09-14T18:23:09.904Z,11.60
2017-09-14T18:25:39.086Z,11.50
2017-09-14T18:28:08.384Z,11.50
2017-09-14T18:30:37.089Z,11.40
2017-09-14T18:33:06.257Z,11.10
2017-09-14T18:35:34.753Z,11.10
2017-09-14T18:38:03.470Z,11.10
2017-09-14T18:40:31.874Z,11.00
2017-09-14T18:43:00.642Z,10.90
2017-09-14T18:45:30.079Z,10.80
2017-09-14T18:47:58.826Z,10.70
2017-09-14T18:50:27.755Z,10.70
2017-09-14T18:52:56.594Z,10.80
2017-09-14T18:55:25.314Z,10.70
2017-09-14T18:57:54.767Z,10.50
2017-09-14T19:00:23.527Z,10.50
2017-09-14T19:02:53.788Z,10.40
2017-09-14T19:05:22.502Z,10.40
2017-09-14T19:07:51.090Z,10.30
2017-09-14T19:10:20.469Z,10.30
2017-09-14T19:12:49.137Z,10.30
2017-09-14T19:15:17.900Z,10.30
2017-09-14T19:17:46.606Z,10.30
2017-09-14T19:20:15.292Z,10.30
2017-09-14T19:22:44.010Z,10.30
2017-09-14T19:25:12.742Z,10.30
2017-09-14T19:27:42.173Z,10.20
2017-09-14T19:30:10.995Z,10.20
2017-09-14T19:32:39.679Z,10.20
2017-09-14T19:35:08.351Z,10.20
2017-09-14T19:37:37.056Z,10.20
2017-09-14T19:40:05.723Z,10.20
2017-09-14T19:42:34.610Z,10.10
2017-09-14T19:45:03.321Z,10.10
2017-09-14T19:47:32.208Z,10.10
2017-09-14T19:50:00.905Z,10.10
2017-09-14T19:52:30.705Z,10.00
2017-09-14T19:54:59.482Z,10.00
2017-09-14T19:57:28.267Z,10.00
2017-09-14T19:59:56.954Z,9.90
2017-09-14T20:02:25.614Z,9.90
2017-09-14T20:04:54.097Z,9.90
2017-09-14T20:07:23.550Z,9.80
2017-09-14T20:09:52.231Z,9.70
2017-09-14T20:12:20.901Z,9.80
2017-09-14T20:14:49.414Z,9.80
2017-09-14T20:17:18.092Z,9.80
2017-09-14T20:19:46.767Z,9.80
2017-09-14T20:22:15.457Z,9.80
2017-09-14T20:24:44.137Z,9.80
2017-09-14T20:27:12.793Z,9.80
2017-09-14T20:29:42.250Z,9.70
2017-09-14T20:32:10.913Z,9.60
2017-09-14T20:34:39.578Z,9.70
2017-09-14T20:37:09.054Z,9.60
2017-09-14T20:39:40.676Z,9.60
2017-09-14T20:42:09.728Z,9.70
2017-09-14T20:44:38.603Z,9.70
2017-09-14T20:47:07.269Z,9.80
2017-09-14T20:49:35.935Z,9.80
2017-09-14T20:52:04.631Z,9.70
2017-09-14T20:54:33.307Z,9.70
2017-09-14T20:57:01.973Z,9.60
2017-09-14T20:59:30.637Z,9.70
2017-09-14T21:02:00.066Z,9.60
2017-09-14T21:04:28.750Z,9.60
2017-09-14T21:06:57.469Z,9.60
2017-09-14T21:09:26.137Z,9.60
2017-09-14T21:11:54.794Z,9.60
2017-09-14T21:14:24.249Z,9.70
2017-09-14T21:16:52.914Z,9.60
2017-09-14T21:19:21.575Z,9.60
2017-09-14T21:21:51.029Z,9.60
2017-09-14T21:24:19.713Z,9.60
2017-09-14T21:26:48.378Z,9.50
2017-09-14T21:29:17.045Z,9.30
2017-09-14T21:31:47.002Z,9.30
2017-09-14T21:34:15.732Z,9.30
2017-09-14T21:36:44.413Z,9.30
2017-09-14T21:39:13.104Z,9.20
2017-09-14T21:41:42.550Z,9.30
2017-09-14T21:44:11.209Z,9.30
2017-09-14T21:46:40.647Z,9.20
2017-09-14T21:49:09.352Z,9.20
2017-09-14T21:51:38.243Z,9.30
2017-09-14T21:54:06.602Z,9.30
2017-09-14T21:56:35.266Z,9.40
2017-09-14T21:59:04.702Z,9.40
2017-09-14T22:01:33.379Z,9.40
2017-09-14T22:04:02.070Z,9.40
2017-09-14T22:06:30.750Z,9.40
2017-09-14T22:08:59.407Z,9.40
2017-09-14T22:11:28.094Z,9.40
2017-09-14T22:13:57.629Z,9.50
2017-09-14T22:16:26.297Z,9.50
2017-09-14T22:18:55.795Z,9.50
2017-09-14T22:21:24.487Z,9.50
2017-09-14T22:23:53.180Z,9.50
2017-09-14T22:26:21.905Z,9.40
2017-09-14T22:28:50.598Z,9.40
2017-09-14T22:31:19.031Z,9.40
2017-09-14T22:33:48.529Z,9.50
2017-09-14T22:36:17.993Z,9.50
2017-09-14T22:38:46.687Z,9.50
2017-09-14T22:41:15.369Z,9.50
2017-09-14T22:43:44.025Z,9.40
2017-09-14T22:46:12.695Z,9.40
2017-09-14T22:48:41.113Z,9.50
2017-09-14T22:51:09.514Z,9.50
2017-09-14T22:53:38.178Z,9.40
2017-09-14T22:56:07.375Z,9.40
2017-09-14T22:58:36.045Z,9.40
2017-09-14T23:01:04.705Z,9.30
2017-09-14T23:03:33.390Z,9.40
2017-09-14T23:06:02.633Z,9.40
2017-09-14T23:08:31.327Z,9.40
2017-09-14T23:11:00.494Z,9.40
2017-09-14T23:13:29.157Z,9.40
2017-09-14T23:15:58.594Z,9.40
2017-09-14T23:18:27.317Z,9.30
2017-09-14T23:20:56.032Z,9.40
2017-09-14T23:23:24.437Z,9.40
2017-09-14T23:25:53.134Z,9.40
2017-09-14T23:28:21.797Z,9.40
2017-09-14T23:30:50.199Z,9.30
2017-09-14T23:33:19.663Z,9.40
2017-09-14T23:35:48.334Z,9.30
2017-09-14T23:38:16.998Z,9.30
2017-09-14T23:40:45.734Z,9.30
2017-09-14T23:43:15.167Z,9.30
2017-09-14T23:45:43.569Z,9.20
2017-09-14T23:48:12.760Z,9.40
2017-09-14T23:50:41.178Z,9.30
2017-09-14T23:53:09.578Z,9.40
2017-09-14T23:55:37.981Z,9.40
2017-09-14T23:58:06.680Z,9.40
